KBNO/BNO METAR and TAF weather

Enter ICAO airport designator
Station Type Date Time Source
KBNO METAR 2018/04/21 10:53 UTC NOAA

KBNO 211053Z AUTO 26009KT 10SM CLR 06/M01 A3019 RMK AO2 SLP210 T00611006


Station Type Date Time Source
KBNO Decoded METAR 2018/04/21 10:53 UTC NOAA

BURNS MUNICIPAL AIRPORT, OR, United States (KBNO) 43-36N 118-57W 1264M
Apr 21, 2018 - 06:53 AM EDT / 2018.04.21 1053 UTC
Wind: from the W (260 degrees) at 10 MPH (9 KT):0
Visibility: 10 mile(s):0
Sky conditions: clear
Temperature: 43.0 F (6.1 C)
Dew Point: 30.9 F (-0.6 C)
Relative Humidity: 62%
Pressure (altimeter): 30.19 in. Hg (1022 hPa)
ob: KBNO 211053Z AUTO 26009KT 10SM CLR 06/M01 A3019 RMK AO2 SLP210 T00611006
cycle: 11

Station Type Date Time Source
KBNO TAF 2018/04/21 12:30 UTC NOAA

TAF KBNO 211127Z 2112/2212 26010KT P6SM FEW150
FM211800 25010KT P6SM FEW050 SCT120
FM220100 30011KT P6SM FEW050 FEW200


Example: see airport list